sensor_id;sensor_type;location;lat;lon;timestamp;temperature;humidity
10411;DHT22;5251;52.112;8.606;2023-07-16T00:00:27;23.10;93.70
10411;DHT22;5251;52.112;8.606;2023-07-16T00:02:53;23.10;93.80
10411;DHT22;5251;52.112;8.606;2023-07-16T00:05:18;23.10;93.70
10411;DHT22;5251;52.112;8.606;2023-07-16T00:07:44;23.10;93.90
10411;DHT22;5251;52.112;8.606;2023-07-16T00:10:10;23.00;93.80
10411;DHT22;5251;52.112;8.606;2023-07-16T00:12:35;23.00;93.80
10411;DHT22;5251;52.112;8.606;2023-07-16T00:15:01;23.00;93.80
10411;DHT22;5251;52.112;8.606;2023-07-16T00:17:26;22.90;93.80
10411;DHT22;5251;52.112;8.606;2023-07-16T00:19:52;22.90;93.90
10411;DHT22;5251;52.112;8.606;2023-07-16T00:22:17;22.90;94.00
10411;DHT22;5251;52.112;8.606;2023-07-16T00:24:43;22.80;93.90
10411;DHT22;5251;52.112;8.606;2023-07-16T00:27:08;22.80;93.90
10411;DHT22;5251;52.112;8.606;2023-07-16T00:29:34;22.80;94.00
10411;DHT22;5251;52.112;8.606;2023-07-16T00:32:00;22.80;94.00
10411;DHT22;5251;52.112;8.606;2023-07-16T00:34:25;22.70;94.00
10411;DHT22;5251;52.112;8.606;2023-07-16T00:36:51;22.70;94.20
10411;DHT22;5251;52.112;8.606;2023-07-16T00:39:16;22.70;94.10
10411;DHT22;5251;52.112;8.606;2023-07-16T00:41:42;22.70;94.20
10411;DHT22;5251;52.112;8.606;2023-07-16T00:44:07;22.70;94.30
10411;DHT22;5251;52.112;8.606;2023-07-16T00:46:33;22.70;94.40
10411;DHT22;5251;52.112;8.606;2023-07-16T00:48:59;22.70;94.50
10411;DHT22;5251;52.112;8.606;2023-07-16T00:51:25;22.60;94.70
10411;DHT22;5251;52.112;8.606;2023-07-16T00:53:51;22.60;94.50
10411;DHT22;5251;52.112;8.606;2023-07-16T00:56:17;22.60;94.50
10411;DHT22;5251;52.112;8.606;2023-07-16T00:58:43;22.50;94.50
10411;DHT22;5251;52.112;8.606;2023-07-16T01:01:09;22.60;94.40
10411;DHT22;5251;52.112;8.606;2023-07-16T01:03:35;22.60;94.10
10411;DHT22;5251;52.112;8.606;2023-07-16T01:09:32;22.50;93.90
10411;DHT22;5251;52.112;8.606;2023-07-16T01:11:40;22.50;93.90
10411;DHT22;5251;52.112;8.606;2023-07-16T01:14:08;22.50;94.00
10411;DHT22;5251;52.112;8.606;2023-07-16T01:16:34;22.40;93.90
10411;DHT22;5251;52.112;8.606;2023-07-16T01:18:59;22.40;94.10
10411;DHT22;5251;52.112;8.606;2023-07-16T01:24:28;22.40;94.20
10411;DHT22;5251;52.112;8.606;2023-07-16T01:30:11;22.30;94.10
10411;DHT22;5251;52.112;8.606;2023-07-16T01:32:38;22.30;94.10
10411;DHT22;5251;52.112;8.606;2023-07-16T01:35:05;22.30;94.30
10411;DHT22;5251;52.112;8.606;2023-07-16T01:37:32;22.30;94.10
10411;DHT22;5251;52.112;8.606;2023-07-16T01:39:58;22.30;94.60
10411;DHT22;5251;52.112;8.606;2023-07-16T01:42:24;22.30;94.30
10411;DHT22;5251;52.112;8.606;2023-07-16T01:44:49;22.30;94.30
10411;DHT22;5251;52.112;8.606;2023-07-16T01:50:19;22.20;94.30
10411;DHT22;5251;52.112;8.606;2023-07-16T01:52:45;22.20;94.10
10411;DHT22;5251;52.112;8.606;2023-07-16T01:55:10;22.10;94.20
10411;DHT22;5251;52.112;8.606;2023-07-16T01:57:36;22.20;94.30
10411;DHT22;5251;52.112;8.606;2023-07-16T02:00:01;22.20;94.30
10411;DHT22;5251;52.112;8.606;2023-07-16T02:02:28;22.10;94.40
10411;DHT22;5251;52.112;8.606;2023-07-16T02:04:53;22.10;94.50
10411;DHT22;5251;52.112;8.606;2023-07-16T02:07:19;22.10;94.40
10411;DHT22;5251;52.112;8.606;2023-07-16T02:09:44;22.00;94.50
10411;DHT22;5251;52.112;8.606;2023-07-16T02:12:10;22.00;94.70
10411;DHT22;5251;52.112;8.606;2023-07-16T02:14:36;22.00;94.80
10411;DHT22;5251;52.112;8.606;2023-07-16T02:17:01;22.00;95.00
10411;DHT22;5251;52.112;8.606;2023-07-16T02:19:27;21.90;94.90
10411;DHT22;5251;52.112;8.606;2023-07-16T02:21:53;21.90;95.00
10411;DHT22;5251;52.112;8.606;2023-07-16T02:24:19;21.90;95.10
10411;DHT22;5251;52.112;8.606;2023-07-16T02:26:45;21.90;95.00
10411;DHT22;5251;52.112;8.606;2023-07-16T02:29:11;21.90;95.10
10411;DHT22;5251;52.112;8.606;2023-07-16T02:31:36;21.90;95.20
10411;DHT22;5251;52.112;8.606;2023-07-16T02:34:02;21.90;95.30
10411;DHT22;5251;52.112;8.606;2023-07-16T02:36:27;21.90;95.40
10411;DHT22;5251;52.112;8.606;2023-07-16T02:38:53;21.90;95.40
10411;DHT22;5251;52.112;8.606;2023-07-16T02:41:19;21.90;95.40
10411;DHT22;5251;52.112;8.606;2023-07-16T02:43:45;21.80;95.40
10411;DHT22;5251;52.112;8.606;2023-07-16T02:46:12;21.80;95.40
10411;DHT22;5251;52.112;8.606;2023-07-16T02:48:37;21.80;95.40
10411;DHT22;5251;52.112;8.606;2023-07-16T02:51:03;21.80;95.40
10411;DHT22;5251;52.112;8.606;2023-07-16T02:53:28;21.70;95.40
10411;DHT22;5251;52.112;8.606;2023-07-16T02:55:54;21.70;95.60
10411;DHT22;5251;52.112;8.606;2023-07-16T02:58:20;21.70;95.60
10411;DHT22;5251;52.112;8.606;2023-07-16T03:00:45;21.60;95.70
10411;DHT22;5251;52.112;8.606;2023-07-16T03:03:11;21.60;95.70
10411;DHT22;5251;52.112;8.606;2023-07-16T03:05:36;21.50;95.80
10411;DHT22;5251;52.112;8.606;2023-07-16T03:08:02;21.50;96.20
10411;DHT22;5251;52.112;8.606;2023-07-16T03:10:27;21.40;95.90
10411;DHT22;5251;52.112;8.606;2023-07-16T03:12:54;21.40;96.00
10411;DHT22;5251;52.112;8.606;2023-07-16T03:15:19;21.30;96.10
10411;DHT22;5251;52.112;8.606;2023-07-16T03:17:45;21.20;96.20
10411;DHT22;5251;52.112;8.606;2023-07-16T03:20:11;21.10;96.40
10411;DHT22;5251;52.112;8.606;2023-07-16T03:22:36;21.10;96.50
10411;DHT22;5251;52.112;8.606;2023-07-16T03:25:02;21.00;96.50
10411;DHT22;5251;52.112;8.606;2023-07-16T03:27:28;21.00;96.70
10411;DHT22;5251;52.112;8.606;2023-07-16T03:29:54;20.90;96.80
10411;DHT22;5251;52.112;8.606;2023-07-16T03:32:19;20.90;97.00
10411;DHT22;5251;52.112;8.606;2023-07-16T03:34:45;20.80;97.00
10411;DHT22;5251;52.112;8.606;2023-07-16T03:37:11;20.80;97.20
10411;DHT22;5251;52.112;8.606;2023-07-16T03:39:36;20.70;97.30
10411;DHT22;5251;52.112;8.606;2023-07-16T03:42:02;20.70;97.50
10411;DHT22;5251;52.112;8.606;2023-07-16T03:44:29;20.60;97.60
10411;DHT22;5251;52.112;8.606;2023-07-16T03:46:54;20.60;97.90
10411;DHT22;5251;52.112;8.606;2023-07-16T03:49:20;20.50;98.10
10411;DHT22;5251;52.112;8.606;2023-07-16T03:51:45;20.50;98.10
10411;DHT22;5251;52.112;8.606;2023-07-16T03:54:11;20.50;98.10
10411;DHT22;5251;52.112;8.606;2023-07-16T03:56:36;20.50;98.30
10411;DHT22;5251;52.112;8.606;2023-07-16T03:59:02;20.40;98.40
10411;DHT22;5251;52.112;8.606;2023-07-16T04:01:27;20.40;98.50
10411;DHT22;5251;52.112;8.606;2023-07-16T04:03:53;20.40;98.50
10411;DHT22;5251;52.112;8.606;2023-07-16T04:06:18;20.40;98.60
10411;DHT22;5251;52.112;8.606;2023-07-16T04:08:44;20.40;98.80
10411;DHT22;5251;52.112;8.606;2023-07-16T04:11:10;20.40;98.90
10411;DHT22;5251;52.112;8.606;2023-07-16T04:13:35;20.50;99.10
10411;DHT22;5251;52.112;8.606;2023-07-16T04:16:01;20.40;99.10
10411;DHT22;5251;52.112;8.606;2023-07-16T04:18:26;20.50;99.10
10411;DHT22;5251;52.112;8.606;2023-07-16T04:20:52;20.50;99.30
10411;DHT22;5251;52.112;8.606;2023-07-16T04:23:18;20.50;99.40
10411;DHT22;5251;52.112;8.606;2023-07-16T04:25:44;20.50;99.40
10411;DHT22;5251;52.112;8.606;2023-07-16T04:28:10;20.50;99.50
10411;DHT22;5251;52.112;8.606;2023-07-16T04:30:36;20.50;99.60
10411;DHT22;5251;52.112;8.606;2023-07-16T04:33:03;20.60;99.80
10411;DHT22;5251;52.112;8.606;2023-07-16T04:35:29;20.60;99.80
10411;DHT22;5251;52.112;8.606;2023-07-16T04:37:54;20.60;99.90
10411;DHT22;5251;52.112;8.606;2023-07-16T04:40:20;20.60;99.90
10411;DHT22;5251;52.112;8.606;2023-07-16T04:42:45;20.70;99.90
10411;DHT22;5251;52.112;8.606;2023-07-16T04:45:12;20.60;99.90
10411;DHT22;5251;52.112;8.606;2023-07-16T04:47:38;20.70;99.90
10411;DHT22;5251;52.112;8.606;2023-07-16T04:50:04;20.80;99.90
10411;DHT22;5251;52.112;8.606;2023-07-16T04:52:29;20.80;99.90
10411;DHT22;5251;52.112;8.606;2023-07-16T04:54:55;20.90;99.90
10411;DHT22;5251;52.112;8.606;2023-07-16T04:57:21;20.90;99.90
10411;DHT22;5251;52.112;8.606;2023-07-16T04:59:46;20.90;99.90
10411;DHT22;5251;52.112;8.606;2023-07-16T05:02:12;21.00;99.90
10411;DHT22;5251;52.112;8.606;2023-07-16T05:04:39;21.00;99.90
10411;DHT22;5251;52.112;8.606;2023-07-16T05:07:05;21.10;99.90
10411;DHT22;5251;52.112;8.606;2023-07-16T05:09:30;21.10;99.90
10411;DHT22;5251;52.112;8.606;2023-07-16T05:11:56;21.20;99.80
10411;DHT22;5251;52.112;8.606;2023-07-16T05:14:22;21.40;99.90
10411;DHT22;5251;52.112;8.606;2023-07-16T05:16:48;21.60;99.90
10411;DHT22;5251;52.112;8.606;2023-07-16T05:19:13;21.80;99.90
10411;DHT22;5251;52.112;8.606;2023-07-16T05:21:39;22.10;99.80
10411;DHT22;5251;52.112;8.606;2023-07-16T05:24:04;22.50;99.60
10411;DHT22;5251;52.112;8.606;2023-07-16T05:26:30;22.80;98.60
10411;DHT22;5251;52.112;8.606;2023-07-16T05:28:56;23.20;98.20
10411;DHT22;5251;52.112;8.606;2023-07-16T05:31:22;23.60;97.10
10411;DHT22;5251;52.112;8.606;2023-07-16T05:33:47;24.00;96.40
10411;DHT22;5251;52.112;8.606;2023-07-16T05:36:13;24.40;95.40
10411;DHT22;5251;52.112;8.606;2023-07-16T05:38:38;24.80;94.70
10411;DHT22;5251;52.112;8.606;2023-07-16T05:41:04;25.20;94.20
10411;DHT22;5251;52.112;8.606;2023-07-16T05:43:31;25.50;92.60
10411;DHT22;5251;52.112;8.606;2023-07-16T05:45:57;25.80;91.70
10411;DHT22;5251;52.112;8.606;2023-07-16T05:48:24;26.00;91.50
10411;DHT22;5251;52.112;8.606;2023-07-16T05:50:50;26.10;90.80
10411;DHT22;5251;52.112;8.606;2023-07-16T05:53:15;26.20;90.20
10411;DHT22;5251;52.112;8.606;2023-07-16T05:55:41;26.10;88.40
10411;DHT22;5251;52.112;8.606;2023-07-16T05:58:06;26.00;87.50
10411;DHT22;5251;52.112;8.606;2023-07-16T06:00:32;26.00;87.70
10411;DHT22;5251;52.112;8.606;2023-07-16T06:02:58;25.90;88.00
10411;DHT22;5251;52.112;8.606;2023-07-16T06:05:23;25.80;86.80
10411;DHT22;5251;52.112;8.606;2023-07-16T06:07:52;25.60;85.80
10411;DHT22;5251;52.112;8.606;2023-07-16T06:10:17;25.50;85.10
10411;DHT22;5251;52.112;8.606;2023-07-16T06:12:43;25.40;84.60
10411;DHT22;5251;52.112;8.606;2023-07-16T06:15:09;25.20;83.80
10411;DHT22;5251;52.112;8.606;2023-07-16T06:17:35;25.20;83.80
10411;DHT22;5251;52.112;8.606;2023-07-16T06:20:02;25.10;85.20
10411;DHT22;5251;52.112;8.606;2023-07-16T06:22:28;25.00;84.00
10411;DHT22;5251;52.112;8.606;2023-07-16T06:24:53;24.90;83.30
10411;DHT22;5251;52.112;8.606;2023-07-16T06:27:19;24.90;82.40
10411;DHT22;5251;52.112;8.606;2023-07-16T06:29:44;24.80;82.60
10411;DHT22;5251;52.112;8.606;2023-07-16T06:32:10;24.80;82.00
10411;DHT22;5251;52.112;8.606;2023-07-16T06:34:36;24.70;81.70
10411;DHT22;5251;52.112;8.606;2023-07-16T06:37:01;24.70;80.40
10411;DHT22;5251;52.112;8.606;2023-07-16T06:39:27;24.60;79.00
10411;DHT22;5251;52.112;8.606;2023-07-16T06:41:53;24.40;78.50
10411;DHT22;5251;52.112;8.606;2023-07-16T06:44:18;24.40;79.00
10411;DHT22;5251;52.112;8.606;2023-07-16T06:46:44;24.40;79.40
10411;DHT22;5251;52.112;8.606;2023-07-16T06:49:09;24.30;80.30
10411;DHT22;5251;52.112;8.606;2023-07-16T06:51:35;24.30;79.00
10411;DHT22;5251;52.112;8.606;2023-07-16T06:54:00;24.30;80.40
10411;DHT22;5251;52.112;8.606;2023-07-16T06:56:26;24.30;79.20
10411;DHT22;5251;52.112;8.606;2023-07-16T06:58:52;24.30;79.50
10411;DHT22;5251;52.112;8.606;2023-07-16T07:01:17;24.40;79.20
10411;DHT22;5251;52.112;8.606;2023-07-16T07:03:43;24.40;79.50
10411;DHT22;5251;52.112;8.606;2023-07-16T07:06:08;24.40;77.20
10411;DHT22;5251;52.112;8.606;2023-07-16T07:08:36;24.40;77.10
10411;DHT22;5251;52.112;8.606;2023-07-16T07:11:02;24.40;76.40
10411;DHT22;5251;52.112;8.606;2023-07-16T07:13:27;24.40;77.10
10411;DHT22;5251;52.112;8.606;2023-07-16T07:15:55;24.40;76.20
10411;DHT22;5251;52.112;8.606;2023-07-16T07:18:21;24.30;76.10
10411;DHT22;5251;52.112;8.606;2023-07-16T07:20:46;24.20;76.20
10411;DHT22;5251;52.112;8.606;2023-07-16T07:23:13;24.10;74.70
10411;DHT22;5251;52.112;8.606;2023-07-16T07:25:39;24.00;75.90
10411;DHT22;5251;52.112;8.606;2023-07-16T07:28:04;24.00;77.00
10411;DHT22;5251;52.112;8.606;2023-07-16T07:30:30;24.00;77.60
10411;DHT22;5251;52.112;8.606;2023-07-16T07:32:56;24.00;76.80
10411;DHT22;5251;52.112;8.606;2023-07-16T07:35:21;24.10;76.60
10411;DHT22;5251;52.112;8.606;2023-07-16T07:37:47;24.20;78.10
10411;DHT22;5251;52.112;8.606;2023-07-16T07:40:13;24.20;76.40
10411;DHT22;5251;52.112;8.606;2023-07-16T07:42:39;24.30;76.50
10411;DHT22;5251;52.112;8.606;2023-07-16T07:45:05;24.40;76.90
10411;DHT22;5251;52.112;8.606;2023-07-16T07:47:30;24.40;76.00
10411;DHT22;5251;52.112;8.606;2023-07-16T07:49:56;24.50;75.70
10411;DHT22;5251;52.112;8.606;2023-07-16T07:52:22;24.60;75.90
10411;DHT22;5251;52.112;8.606;2023-07-16T07:54:47;24.70;77.70
10411;DHT22;5251;52.112;8.606;2023-07-16T07:57:14;24.70;76.40
10411;DHT22;5251;52.112;8.606;2023-07-16T07:59:40;24.80;77.00
10411;DHT22;5251;52.112;8.606;2023-07-16T08:02:06;24.90;76.90
10411;DHT22;5251;52.112;8.606;2023-07-16T08:04:31;25.00;78.40
10411;DHT22;5251;52.112;8.606;2023-07-16T08:06:57;25.10;76.40
10411;DHT22;5251;52.112;8.606;2023-07-16T08:09:25;25.30;76.30
10411;DHT22;5251;52.112;8.606;2023-07-16T08:11:51;25.40;74.90
10411;DHT22;5251;52.112;8.606;2023-07-16T08:14:16;25.50;73.40
10411;DHT22;5251;52.112;8.606;2023-07-16T08:16:42;25.60;73.50
10411;DHT22;5251;52.112;8.606;2023-07-16T08:19:07;25.70;73.60
10411;DHT22;5251;52.112;8.606;2023-07-16T08:21:33;25.80;70.10
10411;DHT22;5251;52.112;8.606;2023-07-16T08:23:59;25.90;71.00
10411;DHT22;5251;52.112;8.606;2023-07-16T08:26:24;26.00;70.50
10411;DHT22;5251;52.112;8.606;2023-07-16T08:28:50;26.00;69.60
10411;DHT22;5251;52.112;8.606;2023-07-16T08:31:16;26.10;69.10
10411;DHT22;5251;52.112;8.606;2023-07-16T08:33:41;26.30;70.60
10411;DHT22;5251;52.112;8.606;2023-07-16T08:36:07;26.40;70.00
10411;DHT22;5251;52.112;8.606;2023-07-16T08:38:32;26.50;66.50
10411;DHT22;5251;52.112;8.606;2023-07-16T08:41:00;26.60;66.50
10411;DHT22;5251;52.112;8.606;2023-07-16T08:43:26;26.70;65.90
10411;DHT22;5251;52.112;8.606;2023-07-16T08:45:52;26.70;65.30
10411;DHT22;5251;52.112;8.606;2023-07-16T08:48:18;26.70;65.20
10411;DHT22;5251;52.112;8.606;2023-07-16T08:50:46;26.80;65.90
10411;DHT22;5251;52.112;8.606;2023-07-16T08:53:12;26.90;66.10
10411;DHT22;5251;52.112;8.606;2023-07-16T08:55:39;27.00;65.70
10411;DHT22;5251;52.112;8.606;2023-07-16T08:58:05;27.10;65.80
10411;DHT22;5251;52.112;8.606;2023-07-16T09:00:31;27.10;64.70
10411;DHT22;5251;52.112;8.606;2023-07-16T09:02:57;27.20;64.20
10411;DHT22;5251;52.112;8.606;2023-07-16T09:05:23;27.20;65.00
10411;DHT22;5251;52.112;8.606;2023-07-16T09:07:49;27.20;64.20
10411;DHT22;5251;52.112;8.606;2023-07-16T09:10:15;27.20;65.20
10411;DHT22;5251;52.112;8.606;2023-07-16T09:12:47;27.20;64.00
10411;DHT22;5251;52.112;8.606;2023-07-16T09:15:16;27.20;65.30
10411;DHT22;5251;52.112;8.606;2023-07-16T09:17:42;27.20;65.10
10411;DHT22;5251;52.112;8.606;2023-07-16T09:20:11;27.20;66.30
10411;DHT22;5251;52.112;8.606;2023-07-16T09:22:39;27.20;65.70
10411;DHT22;5251;52.112;8.606;2023-07-16T09:25:05;27.20;66.00
10411;DHT22;5251;52.112;8.606;2023-07-16T09:27:31;27.30;66.30
10411;DHT22;5251;52.112;8.606;2023-07-16T09:29:57;27.30;61.20
10411;DHT22;5251;52.112;8.606;2023-07-16T09:32:36;27.20;63.50
10411;DHT22;5251;52.112;8.606;2023-07-16T09:35:09;27.20;62.70
10411;DHT22;5251;52.112;8.606;2023-07-16T09:37:37;27.30;64.20
10411;DHT22;5251;52.112;8.606;2023-07-16T09:40:07;27.30;62.70
10411;DHT22;5251;52.112;8.606;2023-07-16T09:42:41;27.40;62.90
10411;DHT22;5251;52.112;8.606;2023-07-16T09:45:08;27.30;62.20
10411;DHT22;5251;52.112;8.606;2023-07-16T09:47:34;27.30;64.80
10411;DHT22;5251;52.112;8.606;2023-07-16T09:50:01;27.30;64.40
10411;DHT22;5251;52.112;8.606;2023-07-16T09:52:27;27.30;65.00
10411;DHT22;5251;52.112;8.606;2023-07-16T09:54:55;27.30;63.30
10411;DHT22;5251;52.112;8.606;2023-07-16T09:57:23;27.30;62.10
10411;DHT22;5251;52.112;8.606;2023-07-16T09:59:51;27.40;64.10
10411;DHT22;5251;52.112;8.606;2023-07-16T10:02:18;27.40;65.10
10411;DHT22;5251;52.112;8.606;2023-07-16T10:04:45;27.50;63.30
10411;DHT22;5251;52.112;8.606;2023-07-16T10:07:21;27.50;65.40
10411;DHT22;5251;52.112;8.606;2023-07-16T10:09:54;27.60;66.60
10411;DHT22;5251;52.112;8.606;2023-07-16T10:12:23;27.70;63.90
10411;DHT22;5251;52.112;8.606;2023-07-16T10:14:51;27.80;63.70
10411;DHT22;5251;52.112;8.606;2023-07-16T10:17:22;27.90;63.40
10411;DHT22;5251;52.112;8.606;2023-07-16T10:19:54;28.00;63.00
10411;DHT22;5251;52.112;8.606;2023-07-16T10:22:38;28.10;63.10
10411;DHT22;5251;52.112;8.606;2023-07-16T10:25:08;28.20;62.80
10411;DHT22;5251;52.112;8.606;2023-07-16T10:27:34;28.30;60.20
10411;DHT22;5251;52.112;8.606;2023-07-16T10:30:01;28.40;62.30
10411;DHT22;5251;52.112;8.606;2023-07-16T10:32:31;28.50;61.10
10411;DHT22;5251;52.112;8.606;2023-07-16T10:34:58;28.60;59.50
10411;DHT22;5251;52.112;8.606;2023-07-16T10:37:24;28.60;60.70
10411;DHT22;5251;52.112;8.606;2023-07-16T10:39:53;28.60;59.80
10411;DHT22;5251;52.112;8.606;2023-07-16T10:42:23;28.70;60.10
10411;DHT22;5251;52.112;8.606;2023-07-16T10:44:57;28.70;59.70
10411;DHT22;5251;52.112;8.606;2023-07-16T10:47:24;28.70;59.80
10411;DHT22;5251;52.112;8.606;2023-07-16T10:49:51;28.70;60.00
10411;DHT22;5251;52.112;8.606;2023-07-16T10:52:20;28.70;61.70
10411;DHT22;5251;52.112;8.606;2023-07-16T10:54:47;28.80;59.50
10411;DHT22;5251;52.112;8.606;2023-07-16T10:57:14;28.80;58.60
10411;DHT22;5251;52.112;8.606;2023-07-16T10:59:42;28.90;59.20
10411;DHT22;5251;52.112;8.606;2023-07-16T11:02:12;29.00;58.00
10411;DHT22;5251;52.112;8.606;2023-07-16T11:04:38;29.00;57.90
10411;DHT22;5251;52.112;8.606;2023-07-16T11:07:13;29.10;58.30
10411;DHT22;5251;52.112;8.606;2023-07-16T11:09:47;29.10;59.90
10411;DHT22;5251;52.112;8.606;2023-07-16T11:12:14;29.20;58.10
10411;DHT22;5251;52.112;8.606;2023-07-16T11:14:45;29.20;57.00
10411;DHT22;5251;52.112;8.606;2023-07-16T11:17:11;29.10;57.00
10411;DHT22;5251;52.112;8.606;2023-07-16T11:19:38;29.10;59.00
10411;DHT22;5251;52.112;8.606;2023-07-16T11:22:06;29.10;58.90
10411;DHT22;5251;52.112;8.606;2023-07-16T11:24:38;29.00;58.20
10411;DHT22;5251;52.112;8.606;2023-07-16T11:27:05;28.90;61.10
10411;DHT22;5251;52.112;8.606;2023-07-16T11:29:34;28.80;59.50
10411;DHT22;5251;52.112;8.606;2023-07-16T11:32:02;28.80;58.10
10411;DHT22;5251;52.112;8.606;2023-07-16T11:34:27;28.80;57.60
10411;DHT22;5251;52.112;8.606;2023-07-16T11:36:53;28.70;58.10
10411;DHT22;5251;52.112;8.606;2023-07-16T11:39:19;28.70;60.00
10411;DHT22;5251;52.112;8.606;2023-07-16T11:41:55;28.70;58.70
10411;DHT22;5251;52.112;8.606;2023-07-16T11:44:21;28.60;58.00
10411;DHT22;5251;52.112;8.606;2023-07-16T11:46:46;28.60;57.00
10411;DHT22;5251;52.112;8.606;2023-07-16T11:49:12;28.60;58.20
10411;DHT22;5251;52.112;8.606;2023-07-16T11:51:38;28.60;58.30
10411;DHT22;5251;52.112;8.606;2023-07-16T11:54:03;28.50;58.20
10411;DHT22;5251;52.112;8.606;2023-07-16T11:56:29;28.50;57.80
10411;DHT22;5251;52.112;8.606;2023-07-16T11:58:55;28.40;59.10
10411;DHT22;5251;52.112;8.606;2023-07-16T12:01:20;28.40;59.10
10411;DHT22;5251;52.112;8.606;2023-07-16T12:03:46;28.40;59.90
10411;DHT22;5251;52.112;8.606;2023-07-16T12:06:12;28.40;58.90
10411;DHT22;5251;52.112;8.606;2023-07-16T12:08:37;28.50;58.80
10411;DHT22;5251;52.112;8.606;2023-07-16T12:11:03;28.50;58.70
10411;DHT22;5251;52.112;8.606;2023-07-16T12:13:29;28.60;59.30
10411;DHT22;5251;52.112;8.606;2023-07-16T12:15:54;28.60;59.80
10411;DHT22;5251;52.112;8.606;2023-07-16T12:18:20;28.70;59.80
10411;DHT22;5251;52.112;8.606;2023-07-16T12:20:45;28.70;59.70
10411;DHT22;5251;52.112;8.606;2023-07-16T12:23:11;28.70;57.90
10411;DHT22;5251;52.112;8.606;2023-07-16T12:25:36;28.70;58.30
10411;DHT22;5251;52.112;8.606;2023-07-16T12:28:02;28.60;57.80
10411;DHT22;5251;52.112;8.606;2023-07-16T12:30:28;28.60;57.40
10411;DHT22;5251;52.112;8.606;2023-07-16T12:32:53;28.60;57.90
10411;DHT22;5251;52.112;8.606;2023-07-16T12:35:19;28.60;58.60
10411;DHT22;5251;52.112;8.606;2023-07-16T12:37:44;28.70;59.30
10411;DHT22;5251;52.112;8.606;2023-07-16T12:40:10;28.70;58.60
10411;DHT22;5251;52.112;8.606;2023-07-16T12:42:37;28.80;58.10
10411;DHT22;5251;52.112;8.606;2023-07-16T12:45:02;28.80;58.40
10411;DHT22;5251;52.112;8.606;2023-07-16T12:47:28;28.80;57.90
10411;DHT22;5251;52.112;8.606;2023-07-16T12:49:53;28.80;57.30
10411;DHT22;5251;52.112;8.606;2023-07-16T12:52:19;28.70;57.20
10411;DHT22;5251;52.112;8.606;2023-07-16T12:54:45;28.70;57.20
10411;DHT22;5251;52.112;8.606;2023-07-16T12:57:11;28.60;57.90
10411;DHT22;5251;52.112;8.606;2023-07-16T12:59:36;28.50;56.80
10411;DHT22;5251;52.112;8.606;2023-07-16T13:02:03;28.50;57.90
10411;DHT22;5251;52.112;8.606;2023-07-16T13:04:28;28.50;57.90
10411;DHT22;5251;52.112;8.606;2023-07-16T13:06:54;28.50;58.00
10411;DHT22;5251;52.112;8.606;2023-07-16T13:09:19;28.40;58.90
10411;DHT22;5251;52.112;8.606;2023-07-16T13:11:45;28.50;59.50
10411;DHT22;5251;52.112;8.606;2023-07-16T13:14:11;28.40;58.90
10411;DHT22;5251;52.112;8.606;2023-07-16T13:16:36;28.40;57.40
10411;DHT22;5251;52.112;8.606;2023-07-16T13:19:02;28.40;57.30
10411;DHT22;5251;52.112;8.606;2023-07-16T13:21:27;28.30;57.90
10411;DHT22;5251;52.112;8.606;2023-07-16T13:23:53;28.30;58.90
10411;DHT22;5251;52.112;8.606;2023-07-16T13:26:18;28.30;58.60
10411;DHT22;5251;52.112;8.606;2023-07-16T13:28:44;28.30;58.40
10411;DHT22;5251;52.112;8.606;2023-07-16T13:31:10;28.30;57.10
10411;DHT22;5251;52.112;8.606;2023-07-16T13:33:35;28.30;57.60
10411;DHT22;5251;52.112;8.606;2023-07-16T13:36:01;28.30;58.30
10411;DHT22;5251;52.112;8.606;2023-07-16T13:38:30;28.40;60.40
10411;DHT22;5251;52.112;8.606;2023-07-16T13:40:56;28.40;60.80
10411;DHT22;5251;52.112;8.606;2023-07-16T13:43:22;28.50;58.20
10411;DHT22;5251;52.112;8.606;2023-07-16T13:45:47;28.60;58.40
10411;DHT22;5251;52.112;8.606;2023-07-16T13:48:13;28.60;59.90
10411;DHT22;5251;52.112;8.606;2023-07-16T13:50:38;28.70;59.00
10411;DHT22;5251;52.112;8.606;2023-07-16T13:53:04;28.70;58.30
10411;DHT22;5251;52.112;8.606;2023-07-16T13:55:30;28.70;58.80
10411;DHT22;5251;52.112;8.606;2023-07-16T13:57:55;28.70;56.90
10411;DHT22;5251;52.112;8.606;2023-07-16T14:00:22;28.80;57.20
10411;DHT22;5251;52.112;8.606;2023-07-16T14:02:47;28.80;58.10
10411;DHT22;5251;52.112;8.606;2023-07-16T14:05:13;28.90;58.30
10411;DHT22;5251;52.112;8.606;2023-07-16T14:07:38;28.90;57.60
10411;DHT22;5251;52.112;8.606;2023-07-16T14:10:04;29.00;57.70
10411;DHT22;5251;52.112;8.606;2023-07-16T14:12:30;28.90;56.50
10411;DHT22;5251;52.112;8.606;2023-07-16T14:14:56;28.90;57.30
10411;DHT22;5251;52.112;8.606;2023-07-16T14:17:21;28.90;57.30
10411;DHT22;5251;52.112;8.606;2023-07-16T14:19:48;28.90;56.50
10411;DHT22;5251;52.112;8.606;2023-07-16T14:22:14;28.90;57.40
10411;DHT22;5251;52.112;8.606;2023-07-16T14:24:41;28.90;57.00
10411;DHT22;5251;52.112;8.606;2023-07-16T14:27:08;28.80;57.40
10411;DHT22;5251;52.112;8.606;2023-07-16T14:29:34;28.80;57.00
10411;DHT22;5251;52.112;8.606;2023-07-16T14:32:00;28.80;57.50
10411;DHT22;5251;52.112;8.606;2023-07-16T14:34:26;28.90;56.90
10411;DHT22;5251;52.112;8.606;2023-07-16T14:36:52;28.80;58.40
10411;DHT22;5251;52.112;8.606;2023-07-16T14:39:18;28.80;58.40
10411;DHT22;5251;52.112;8.606;2023-07-16T14:41:44;28.80;57.90
10411;DHT22;5251;52.112;8.606;2023-07-16T14:44:10;28.90;59.00
10411;DHT22;5251;52.112;8.606;2023-07-16T14:46:35;28.90;58.40
10411;DHT22;5251;52.112;8.606;2023-07-16T14:49:02;29.00;59.30
10411;DHT22;5251;52.112;8.606;2023-07-16T14:51:28;29.00;58.70
10411;DHT22;5251;52.112;8.606;2023-07-16T14:53:55;29.10;57.50
10411;DHT22;5251;52.112;8.606;2023-07-16T14:56:21;29.10;57.70
10411;DHT22;5251;52.112;8.606;2023-07-16T14:58:46;29.20;58.80
10411;DHT22;5251;52.112;8.606;2023-07-16T15:01:12;29.20;58.20
10411;DHT22;5251;52.112;8.606;2023-07-16T15:03:38;29.10;57.60
10411;DHT22;5251;52.112;8.606;2023-07-16T15:06:05;29.20;58.00
10411;DHT22;5251;52.112;8.606;2023-07-16T15:08:31;29.20;56.70
10411;DHT22;5251;52.112;8.606;2023-07-16T15:10:58;29.10;57.00
10411;DHT22;5251;52.112;8.606;2023-07-16T15:13:24;29.00;56.50
10411;DHT22;5251;52.112;8.606;2023-07-16T15:15:57;29.00;56.80
10411;DHT22;5251;52.112;8.606;2023-07-16T15:18:23;29.00;58.20
10411;DHT22;5251;52.112;8.606;2023-07-16T15:20:58;29.00;59.10
10411;DHT22;5251;52.112;8.606;2023-07-16T15:23:25;29.00;57.70
10411;DHT22;5251;52.112;8.606;2023-07-16T15:25:52;29.00;56.20
10411;DHT22;5251;52.112;8.606;2023-07-16T15:28:17;28.90;56.00
10411;DHT22;5251;52.112;8.606;2023-07-16T15:30:43;28.90;55.50
10411;DHT22;5251;52.112;8.606;2023-07-16T15:33:08;28.80;56.80
10411;DHT22;5251;52.112;8.606;2023-07-16T15:35:35;28.80;55.90
10411;DHT22;5251;52.112;8.606;2023-07-16T15:38:02;28.80;56.50
10411;DHT22;5251;52.112;8.606;2023-07-16T15:40:28;28.70;57.50
10411;DHT22;5251;52.112;8.606;2023-07-16T15:42:57;28.60;57.80
10411;DHT22;5251;52.112;8.606;2023-07-16T15:45:22;28.70;58.40
10411;DHT22;5251;52.112;8.606;2023-07-16T15:47:48;28.60;58.30
10411;DHT22;5251;52.112;8.606;2023-07-16T15:50:16;28.60;58.30